sensor_id;sensor_type;location;lat;lon;timestamp;temperature;humidity
52943;DHT22;38809;53.300;6.614;2023-03-03T00:00:13;2.80;99.90
52943;DHT22;38809;53.300;6.614;2023-03-03T00:02:39;1.40;99.90
52943;DHT22;38809;53.300;6.614;2023-03-03T00:05:05;1.60;99.90
52943;DHT22;38809;53.300;6.614;2023-03-03T00:07:32;1.40;99.90
52943;DHT22;38809;53.300;6.614;2023-03-03T00:09:57;1.50;99.90
52943;DHT22;38809;53.300;6.614;2023-03-03T00:12:27;2.10;99.90
52943;DHT22;38809;53.300;6.614;2023-03-03T00:14:53;2.60;99.90
52943;DHT22;38809;53.300;6.614;2023-03-03T00:17:27;2.80;99.90
52943;DHT22;38809;53.300;6.614;2023-03-03T00:19:54;1.20;99.90
52943;DHT22;38809;53.300;6.614;2023-03-03T00:22:29;1.10;99.90
52943;DHT22;38809;53.300;6.614;2023-03-03T00:24:59;1.70;99.90
52943;DHT22;38809;53.300;6.614;2023-03-03T00:27:29;2.80;99.90
52943;DHT22;38809;53.300;6.614;2023-03-03T00:29:57;3.20;99.90
52943;DHT22;38809;53.300;6.614;2023-03-03T00:32:43;1.10;99.90
52943;DHT22;38809;53.300;6.614;2023-03-03T00:35:40;2.90;99.90
52943;DHT22;38809;53.300;6.614;2023-03-03T00:38:13;2.60;99.90
52943;DHT22;38809;53.300;6.614;2023-03-03T00:40:40;1.10;99.90
52943;DHT22;38809;53.300;6.614;2023-03-03T00:43:23;1.80;99.90
52943;DHT22;38809;53.300;6.614;2023-03-03T00:45:51;1.20;99.90
52943;DHT22;38809;53.300;6.614;2023-03-03T00:51:28;1.30;99.90
52943;DHT22;38809;53.300;6.614;2023-03-03T00:53:55;1.20;99.90
52943;DHT22;38809;53.300;6.614;2023-03-03T00:56:20;3.00;99.90
52943;DHT22;38809;53.300;6.614;2023-03-03T00:58:46;1.10;99.90
52943;DHT22;38809;53.300;6.614;2023-03-03T01:01:13;0.80;99.90
52943;DHT22;38809;53.300;6.614;2023-03-03T01:03:39;0.90;99.90
52943;DHT22;38809;53.300;6.614;2023-03-03T01:06:05;0.80;99.90
52943;DHT22;38809;53.300;6.614;2023-03-03T01:08:31;0.60;99.90
52943;DHT22;38809;53.300;6.614;2023-03-03T01:11:00;0.60;99.90
52943;DHT22;38809;53.300;6.614;2023-03-03T01:13:32;0.70;99.90
52943;DHT22;38809;53.300;6.614;2023-03-03T01:15:59;0.60;99.90
52943;DHT22;38809;53.300;6.614;2023-03-03T01:18:25;2.20;99.90
52943;DHT22;38809;53.300;6.614;2023-03-03T01:20:51;0.60;99.90
52943;DHT22;38809;53.300;6.614;2023-03-03T01:23:17;0.50;99.90
52943;DHT22;38809;53.300;6.614;2023-03-03T01:25:42;0.70;99.90
52943;DHT22;38809;53.300;6.614;2023-03-03T01:28:09;0.60;99.90
52943;DHT22;38809;53.300;6.614;2023-03-03T01:30:35;0.60;99.90
52943;DHT22;38809;53.300;6.614;2023-03-03T01:33:01;0.50;99.90
52943;DHT22;38809;53.300;6.614;2023-03-03T01:35:27;0.40;99.90
52943;DHT22;38809;53.300;6.614;2023-03-03T01:37:54;0.60;99.90
52943;DHT22;38809;53.300;6.614;2023-03-03T01:40:22;0.90;99.90
52943;DHT22;38809;53.300;6.614;2023-03-03T01:42:49;0.20;99.90
52943;DHT22;38809;53.300;6.614;2023-03-03T01:45:23;0.30;99.90
52943;DHT22;38809;53.300;6.614;2023-03-03T01:48:05;0.10;99.90
52943;DHT22;38809;53.300;6.614;2023-03-03T01:50:53;0.40;99.90
52943;DHT22;38809;53.300;6.614;2023-03-03T01:55:53;0.20;99.90
52943;DHT22;38809;53.300;6.614;2023-03-03T01:58:20;0.30;99.90
52943;DHT22;38809;53.300;6.614;2023-03-03T02:00:56;0.30;99.90
52943;DHT22;38809;53.300;6.614;2023-03-03T02:03:22;0.10;99.90
52943;DHT22;38809;53.300;6.614;2023-03-03T02:05:49;1.50;99.90
52943;DHT22;38809;53.300;6.614;2023-03-03T02:08:17;0.10;99.90
52943;DHT22;38809;53.300;6.614;2023-03-03T02:10:45;0.20;99.90
52943;DHT22;38809;53.300;6.614;2023-03-03T02:13:12;0.00;99.90
52943;DHT22;38809;53.300;6.614;2023-03-03T02:15:38;0.30;99.90
52943;DHT22;38809;53.300;6.614;2023-03-03T02:18:16;0.10;99.90
52943;DHT22;38809;53.300;6.614;2023-03-03T02:21:01;1.60;99.90
52943;DHT22;38809;53.300;6.614;2023-03-03T02:26:15;1.20;99.90
52943;DHT22;38809;53.300;6.614;2023-03-03T02:28:42;1.50;99.90
52943;DHT22;38809;53.300;6.614;2023-03-03T02:31:13;0.60;99.90
52943;DHT22;38809;53.300;6.614;2023-03-03T02:33:45;0.20;99.90
52943;DHT22;38809;53.300;6.614;2023-03-03T02:36:23;0.20;99.90
52943;DHT22;38809;53.300;6.614;2023-03-03T02:44:28;0.20;99.90
52943;DHT22;38809;53.300;6.614;2023-03-03T02:46:55;0.20;99.90
52943;DHT22;38809;53.300;6.614;2023-03-03T02:49:23;1.80;99.90
52943;DHT22;38809;53.300;6.614;2023-03-03T02:51:50;-0.20;99.90
52943;DHT22;38809;53.300;6.614;2023-03-03T02:54:17;2.10;99.90
52943;DHT22;38809;53.300;6.614;2023-03-03T02:56:43;-0.20;99.90
52943;DHT22;38809;53.300;6.614;2023-03-03T02:59:09;-0.10;99.90
52943;DHT22;38809;53.300;6.614;2023-03-03T03:01:35;0.40;99.90
52943;DHT22;38809;53.300;6.614;2023-03-03T03:04:15;1.40;99.90
52943;DHT22;38809;53.300;6.614;2023-03-03T03:06:42;0.00;99.90
52943;DHT22;38809;53.300;6.614;2023-03-03T03:09:09;0.00;99.90
52943;DHT22;38809;53.300;6.614;2023-03-03T03:11:36;-0.20;99.90
52943;DHT22;38809;53.300;6.614;2023-03-03T03:14:05;1.00;99.90
52943;DHT22;38809;53.300;6.614;2023-03-03T03:16:31;1.70;99.90
52943;DHT22;38809;53.300;6.614;2023-03-03T03:18:59;0.10;99.90
52943;DHT22;38809;53.300;6.614;2023-03-03T03:21:24;0.00;99.90
52943;DHT22;38809;53.300;6.614;2023-03-03T03:23:50;0.00;99.90
52943;DHT22;38809;53.300;6.614;2023-03-03T03:26:16;0.90;99.90
52943;DHT22;38809;53.300;6.614;2023-03-03T03:28:42;-0.10;99.90
52943;DHT22;38809;53.300;6.614;2023-03-03T03:31:08;0.00;99.90
52943;DHT22;38809;53.300;6.614;2023-03-03T03:33:34;-0.20;99.90
52943;DHT22;38809;53.300;6.614;2023-03-03T03:36:00;1.80;99.90
52943;DHT22;38809;53.300;6.614;2023-03-03T03:38:26;0.00;99.90
52943;DHT22;38809;53.300;6.614;2023-03-03T03:40:54;0.00;99.90
52943;DHT22;38809;53.300;6.614;2023-03-03T03:43:20;0.00;99.90
52943;DHT22;38809;53.300;6.614;2023-03-03T03:45:46;0.70;99.90
52943;DHT22;38809;53.300;6.614;2023-03-03T03:48:11;2.00;99.90
52943;DHT22;38809;53.300;6.614;2023-03-03T03:50:37;1.20;99.90
52943;DHT22;38809;53.300;6.614;2023-03-03T03:53:04;-0.20;99.90
52943;DHT22;38809;53.300;6.614;2023-03-03T03:55:31;-0.10;99.90
52943;DHT22;38809;53.300;6.614;2023-03-03T03:57:57;-0.10;99.90
52943;DHT22;38809;53.300;6.614;2023-03-03T04:00:23;-0.10;99.90
52943;DHT22;38809;53.300;6.614;2023-03-03T04:02:49;0.10;99.90
52943;DHT22;38809;53.300;6.614;2023-03-03T04:05:15;0.00;99.90
52943;DHT22;38809;53.300;6.614;2023-03-03T04:07:41;0.10;99.90
52943;DHT22;38809;53.300;6.614;2023-03-03T04:10:07;1.70;99.90
52943;DHT22;38809;53.300;6.614;2023-03-03T04:12:33;0.00;99.90
52943;DHT22;38809;53.300;6.614;2023-03-03T04:15:10;0.00;99.90
52943;DHT22;38809;53.300;6.614;2023-03-03T04:17:37;-0.20;99.90
52943;DHT22;38809;53.300;6.614;2023-03-03T04:20:04;-0.20;99.90
52943;DHT22;38809;53.300;6.614;2023-03-03T04:22:30;-0.20;99.90
52943;DHT22;38809;53.300;6.614;2023-03-03T04:24:59;0.00;99.90
52943;DHT22;38809;53.300;6.614;2023-03-03T04:27:25;1.50;99.90
52943;DHT22;38809;53.300;6.614;2023-03-03T04:29:51;-0.30;99.90
52943;DHT22;38809;53.300;6.614;2023-03-03T04:32:16;-0.30;99.90
52943;DHT22;38809;53.300;6.614;2023-03-03T04:34:43;-0.30;99.90
52943;DHT22;38809;53.300;6.614;2023-03-03T04:37:09;-0.40;99.90
52943;DHT22;38809;53.300;6.614;2023-03-03T04:39:34;-0.10;99.90
52943;DHT22;38809;53.300;6.614;2023-03-03T04:42:00;1.00;99.90
52943;DHT22;38809;53.300;6.614;2023-03-03T04:44:26;0.50;99.90
52943;DHT22;38809;53.300;6.614;2023-03-03T04:46:52;-0.40;99.90
52943;DHT22;38809;53.300;6.614;2023-03-03T04:49:17;0.60;99.90
52943;DHT22;38809;53.300;6.614;2023-03-03T04:51:43;-0.40;99.90
52943;DHT22;38809;53.300;6.614;2023-03-03T04:54:09;1.60;99.90
52943;DHT22;38809;53.300;6.614;2023-03-03T04:56:35;0.90;99.90
52943;DHT22;38809;53.300;6.614;2023-03-03T04:59:00;-0.20;99.90
52943;DHT22;38809;53.300;6.614;2023-03-03T05:01:26;-0.20;99.90
52943;DHT22;38809;53.300;6.614;2023-03-03T05:03:52;-0.20;99.90
52943;DHT22;38809;53.300;6.614;2023-03-03T05:06:17;0.70;99.90
52943;DHT22;38809;53.300;6.614;2023-03-03T05:08:44;-0.20;99.90
52943;DHT22;38809;53.300;6.614;2023-03-03T05:11:10;-0.20;99.90
52943;DHT22;38809;53.300;6.614;2023-03-03T05:13:36;-0.30;99.90
52943;DHT22;38809;53.300;6.614;2023-03-03T05:16:03;-0.40;99.90
52943;DHT22;38809;53.300;6.614;2023-03-03T05:18:28;-0.30;99.90
52943;DHT22;38809;53.300;6.614;2023-03-03T05:20:54;1.40;99.90
52943;DHT22;38809;53.300;6.614;2023-03-03T05:23:20;1.00;99.90
52943;DHT22;38809;53.300;6.614;2023-03-03T05:25:47;0.00;99.90
52943;DHT22;38809;53.300;6.614;2023-03-03T05:28:13;-0.20;99.90
52943;DHT22;38809;53.300;6.614;2023-03-03T05:30:39;1.60;99.90
52943;DHT22;38809;53.300;6.614;2023-03-03T05:33:05;1.90;99.90
52943;DHT22;38809;53.300;6.614;2023-03-03T05:35:31;-0.40;99.90
52943;DHT22;38809;53.300;6.614;2023-03-03T05:37:56;-0.30;99.90
52943;DHT22;38809;53.300;6.614;2023-03-03T05:40:26;-0.10;99.90
52943;DHT22;38809;53.300;6.614;2023-03-03T05:42:52;-0.30;99.90
52943;DHT22;38809;53.300;6.614;2023-03-03T05:45:18;-0.40;99.90
52943;DHT22;38809;53.300;6.614;2023-03-03T05:47:51;-0.40;99.90
52943;DHT22;38809;53.300;6.614;2023-03-03T05:50:18;-0.10;99.90
52943;DHT22;38809;53.300;6.614;2023-03-03T05:52:47;-0.40;99.90
52943;DHT22;38809;53.300;6.614;2023-03-03T05:55:13;-0.30;99.90
52943;DHT22;38809;53.300;6.614;2023-03-03T05:57:38;-0.10;99.90
52943;DHT22;38809;53.300;6.614;2023-03-03T06:00:05;-0.30;99.90
52943;DHT22;38809;53.300;6.614;2023-03-03T06:02:31;-0.10;99.90
52943;DHT22;38809;53.300;6.614;2023-03-03T06:04:57;1.20;99.90
52943;DHT22;38809;53.300;6.614;2023-03-03T06:07:22;1.50;99.90
52943;DHT22;38809;53.300;6.614;2023-03-03T06:09:48;1.10;99.90
52943;DHT22;38809;53.300;6.614;2023-03-03T06:12:14;0.80;99.90
52943;DHT22;38809;53.300;6.614;2023-03-03T06:14:39;0.60;99.90
52943;DHT22;38809;53.300;6.614;2023-03-03T06:17:05;-0.20;99.90
52943;DHT22;38809;53.300;6.614;2023-03-03T06:19:31;1.90;99.90
52943;DHT22;38809;53.300;6.614;2023-03-03T06:21:57;-0.10;99.90
52943;DHT22;38809;53.300;6.614;2023-03-03T06:24:22;-0.10;99.90
52943;DHT22;38809;53.300;6.614;2023-03-03T06:26:55;-0.10;99.90
52943;DHT22;38809;53.300;6.614;2023-03-03T06:29:21;0.10;99.90
52943;DHT22;38809;53.300;6.614;2023-03-03T06:31:47;0.40;99.90
52943;DHT22;38809;53.300;6.614;2023-03-03T06:34:12;0.20;99.90
52943;DHT22;38809;53.300;6.614;2023-03-03T06:36:38;0.30;99.90
52943;DHT22;38809;53.300;6.614;2023-03-03T06:39:04;0.50;99.90
52943;DHT22;38809;53.300;6.614;2023-03-03T06:41:30;1.10;99.90
52943;DHT22;38809;53.300;6.614;2023-03-03T06:43:58;0.20;99.90
52943;DHT22;38809;53.300;6.614;2023-03-03T06:46:25;0.90;99.90
52943;DHT22;38809;53.300;6.614;2023-03-03T06:48:51;1.30;99.90
52943;DHT22;38809;53.300;6.614;2023-03-03T06:53:48;0.50;99.90
52943;DHT22;38809;53.300;6.614;2023-03-03T06:56:14;1.50;99.90
52943;DHT22;38809;53.300;6.614;2023-03-03T06:58:40;2.40;99.90
52943;DHT22;38809;53.300;6.614;2023-03-03T07:01:12;0.80;99.90
52943;DHT22;38809;53.300;6.614;2023-03-03T07:03:39;1.50;99.90
52943;DHT22;38809;53.300;6.614;2023-03-03T07:06:21;1.00;99.90
52943;DHT22;38809;53.300;6.614;2023-03-03T07:08:48;1.10;99.90
52943;DHT22;38809;53.300;6.614;2023-03-03T07:11:18;1.80;99.90
52943;DHT22;38809;53.300;6.614;2023-03-03T07:13:47;1.40;99.90
52943;DHT22;38809;53.300;6.614;2023-03-03T07:16:15;1.60;99.90
52943;DHT22;38809;53.300;6.614;2023-03-03T07:21:30;1.40;99.90
52943;DHT22;38809;53.300;6.614;2023-03-03T07:23:57;1.60;99.90
52943;DHT22;38809;53.300;6.614;2023-03-03T07:26:30;1.30;99.90
52943;DHT22;38809;53.300;6.614;2023-03-03T07:29:00;1.40;99.90
52943;DHT22;38809;53.300;6.614;2023-03-03T07:31:27;1.70;99.90
52943;DHT22;38809;53.300;6.614;2023-03-03T07:33:54;2.90;99.90
52943;DHT22;38809;53.300;6.614;2023-03-03T07:36:29;1.90;99.90
52943;DHT22;38809;53.300;6.614;2023-03-03T07:39:00;1.50;99.90
52943;DHT22;38809;53.300;6.614;2023-03-03T07:41:27;1.40;99.90
52943;DHT22;38809;53.300;6.614;2023-03-03T07:43:54;1.40;99.90
52943;DHT22;38809;53.300;6.614;2023-03-03T07:46:44;3.60;99.90
52943;DHT22;38809;53.300;6.614;2023-03-03T07:49:22;1.70;99.90
52943;DHT22;38809;53.300;6.614;2023-03-03T07:51:55;1.80;99.90
52943;DHT22;38809;53.300;6.614;2023-03-03T07:54:39;1.80;99.90
52943;DHT22;38809;53.300;6.614;2023-03-03T07:57:25;2.00;99.90
52943;DHT22;38809;53.300;6.614;2023-03-03T07:59:59;1.80;99.90
52943;DHT22;38809;53.300;6.614;2023-03-03T08:02:56;1.90;99.90
52943;DHT22;38809;53.300;6.614;2023-03-03T08:05:37;1.70;99.90
52943;DHT22;38809;53.300;6.614;2023-03-03T08:08:28;1.80;99.90
52943;DHT22;38809;53.300;6.614;2023-03-03T08:10:56;2.10;99.90
52943;DHT22;38809;53.300;6.614;2023-03-03T08:13:36;2.10;99.90
52943;DHT22;38809;53.300;6.614;2023-03-03T08:18:44;2.60;99.90
52943;DHT22;38809;53.300;6.614;2023-03-03T08:21:12;2.30;99.90
52943;DHT22;38809;53.300;6.614;2023-03-03T08:23:39;2.60;99.90
52943;DHT22;38809;53.300;6.614;2023-03-03T08:26:05;4.30;99.90
52943;DHT22;38809;53.300;6.614;2023-03-03T08:28:30;2.90;99.90
52943;DHT22;38809;53.300;6.614;2023-03-03T08:30:56;2.40;99.90
52943;DHT22;38809;53.300;6.614;2023-03-03T08:33:22;3.20;99.90
52943;DHT22;38809;53.300;6.614;2023-03-03T08:35:48;2.80;99.90
52943;DHT22;38809;53.300;6.614;2023-03-03T08:38:17;2.60;99.90
52943;DHT22;38809;53.300;6.614;2023-03-03T08:40:43;2.50;99.90
52943;DHT22;38809;53.300;6.614;2023-03-03T08:43:09;3.10;99.90
52943;DHT22;38809;53.300;6.614;2023-03-03T08:45:35;3.10;99.90
52943;DHT22;38809;53.300;6.614;2023-03-03T08:48:02;2.90;99.90
52943;DHT22;38809;53.300;6.614;2023-03-03T08:50:28;2.90;99.90
52943;DHT22;38809;53.300;6.614;2023-03-03T08:52:54;3.00;99.90
52943;DHT22;38809;53.300;6.614;2023-03-03T08:55:20;3.20;99.90
52943;DHT22;38809;53.300;6.614;2023-03-03T08:57:46;3.60;99.90
52943;DHT22;38809;53.300;6.614;2023-03-03T09:00:15;3.70;99.90
52943;DHT22;38809;53.300;6.614;2023-03-03T09:02:41;3.80;99.90
52943;DHT22;38809;53.300;6.614;2023-03-03T09:05:07;3.60;99.90
52943;DHT22;38809;53.300;6.614;2023-03-03T09:07:33;4.10;99.90
52943;DHT22;38809;53.300;6.614;2023-03-03T09:09:59;4.10;99.90
52943;DHT22;38809;53.300;6.614;2023-03-03T09:12:31;4.10;99.90
52943;DHT22;38809;53.300;6.614;2023-03-03T09:14:59;6.30;99.90
52943;DHT22;38809;53.300;6.614;2023-03-03T09:17:35;4.40;99.90
52943;DHT22;38809;53.300;6.614;2023-03-03T09:20:33;4.70;99.90
52943;DHT22;38809;53.300;6.614;2023-03-03T09:25:54;4.80;99.90
52943;DHT22;38809;53.300;6.614;2023-03-03T09:30:49;5.40;99.90
52943;DHT22;38809;53.300;6.614;2023-03-03T09:36:25;5.50;99.90
52943;DHT22;38809;53.300;6.614;2023-03-03T09:38:53;5.80;99.90
52943;DHT22;38809;53.300;6.614;2023-03-03T09:47:11;5.90;99.90
52943;DHT22;38809;53.300;6.614;2023-03-03T10:04:39;6.10;99.90
52943;DHT22;38809;53.300;6.614;2023-03-03T10:12:19;6.40;99.90
52943;DHT22;38809;53.300;6.614;2023-03-03T10:14:57;6.20;99.90
52943;DHT22;38809;53.300;6.614;2023-03-03T10:18:08;6.30;99.90
52943;DHT22;38809;53.300;6.614;2023-03-03T10:20:58;6.30;99.90
52943;DHT22;38809;53.300;6.614;2023-03-03T10:26:05;6.10;99.90
52943;DHT22;38809;53.300;6.614;2023-03-03T10:39:28;6.40;99.90
52943;DHT22;38809;53.300;6.614;2023-03-03T11:08:48;7.10;99.90
52943;DHT22;38809;53.300;6.614;2023-03-03T11:11:33;7.10;99.90
52943;DHT22;38809;53.300;6.614;2023-03-03T11:14:28;7.10;99.90
52943;DHT22;38809;53.300;6.614;2023-03-03T11:20:03;7.40;99.90
52943;DHT22;38809;53.300;6.614;2023-03-03T11:22:41;7.40;99.90
52943;DHT22;38809;53.300;6.614;2023-03-03T11:25:26;7.60;99.90
52943;DHT22;38809;53.300;6.614;2023-03-03T11:30:50;6.90;99.90
52943;DHT22;38809;53.300;6.614;2023-03-03T11:33:22;7.00;99.90
52943;DHT22;38809;53.300;6.614;2023-03-03T11:36:53;7.30;99.90
52943;DHT22;38809;53.300;6.614;2023-03-03T11:39:11;7.50;99.90
52943;DHT22;38809;53.300;6.614;2023-03-03T11:41:41;7.60;99.90
52943;DHT22;38809;53.300;6.614;2023-03-03T11:44:21;7.40;99.90
52943;DHT22;38809;53.300;6.614;2023-03-03T11:49:52;7.40;99.90
52943;DHT22;38809;53.300;6.614;2023-03-03T12:01:45;8.00;99.90
52943;DHT22;38809;53.300;6.614;2023-03-03T12:04:19;8.20;99.90
52943;DHT22;38809;53.300;6.614;2023-03-03T12:07:12;8.10;99.90
52943;DHT22;38809;53.300;6.614;2023-03-03T12:13:08;8.00;99.90
52943;DHT22;38809;53.300;6.614;2023-03-03T12:27:06;7.80;99.90
52943;DHT22;38809;53.300;6.614;2023-03-03T12:35:45;8.00;99.90
52943;DHT22;38809;53.300;6.614;2023-03-03T12:41:12;8.00;99.90
52943;DHT22;38809;53.300;6.614;2023-03-03T12:46:50;8.00;99.90
52943;DHT22;38809;53.300;6.614;2023-03-03T12:49:13;8.00;99.90
52943;DHT22;38809;53.300;6.614;2023-03-03T12:54:31;8.10;99.90
52943;DHT22;38809;53.300;6.614;2023-03-03T12:57:15;8.10;99.90
52943;DHT22;38809;53.300;6.614;2023-03-03T13:02:41;8.20;99.90
52943;DHT22;38809;53.300;6.614;2023-03-03T13:10:43;8.10;99.90
52943;DHT22;38809;53.300;6.614;2023-03-03T13:13:21;8.00;99.90
52943;DHT22;38809;53.300;6.614;2023-03-03T13:16:05;7.90;99.90
52943;DHT22;38809;53.300;6.614;2023-03-03T13:19:25;7.80;99.90
52943;DHT22;38809;53.300;6.614;2023-03-03T13:24:37;7.70;99.90
52943;DHT22;38809;53.300;6.614;2023-03-03T13:27:07;7.90;99.90
52943;DHT22;38809;53.300;6.614;2023-03-03T13:30:00;7.90;99.90
52943;DHT22;38809;53.300;6.614;2023-03-03T13:32:58;7.70;99.90
52943;DHT22;38809;53.300;6.614;2023-03-03T13:35:45;7.70;99.90
52943;DHT22;38809;53.300;6.614;2023-03-03T13:38:14;7.80;99.90
52943;DHT22;38809;53.300;6.614;2023-03-03T13:40:45;7.70;99.90
52943;DHT22;38809;53.300;6.614;2023-03-03T13:43:23;7.80;99.90
52943;DHT22;38809;53.300;6.614;2023-03-03T13:49:23;7.50;99.90
52943;DHT22;38809;53.300;6.614;2023-03-03T13:52:06;7.50;99.90
52943;DHT22;38809;53.300;6.614;2023-03-03T13:54:52;7.60;99.90
52943;DHT22;38809;53.300;6.614;2023-03-03T14:05:49;7.50;99.90
52943;DHT22;38809;53.300;6.614;2023-03-03T14:08:41;7.60;99.90
52943;DHT22;38809;53.300;6.614;2023-03-03T14:11:28;7.40;99.90
52943;DHT22;38809;53.300;6.614;2023-03-03T14:20:19;7.50;99.90
52943;DHT22;38809;53.300;6.614;2023-03-03T14:28:21;7.50;99.90
52943;DHT22;38809;53.300;6.614;2023-03-03T14:30:47;7.50;99.90
52943;DHT22;38809;53.300;6.614;2023-03-03T14:33:20;7.40;99.90
52943;DHT22;38809;53.300;6.614;2023-03-03T14:36:05;7.50;99.90
52943;DHT22;38809;53.300;6.614;2023-03-03T14:38:36;7.50;99.90
52943;DHT22;38809;53.300;6.614;2023-03-03T14:43:38;7.70;99.90
52943;DHT22;38809;53.300;6.614;2023-03-03T14:48:53;7.40;99.90
52943;DHT22;38809;53.300;6.614;2023-03-03T14:53:58;7.30;99.90
52943;DHT22;38809;53.300;6.614;2023-03-03T14:56:27;7.30;99.90
52943;DHT22;38809;53.300;6.614;2023-03-03T14:59:10;7.30;99.90
52943;DHT22;38809;53.300;6.614;2023-03-03T15:01:37;7.40;99.90
52943;DHT22;38809;53.300;6.614;2023-03-03T15:04:04;7.30;99.90
52943;DHT22;38809;53.300;6.614;2023-03-03T15:06:36;7.30;99.90
52943;DHT22;38809;53.300;6.614;2023-03-03T15:09:31;7.30;99.90
52943;DHT22;38809;53.300;6.614;2023-03-03T15:14:49;7.20;99.90
52943;DHT22;38809;53.300;6.614;2023-03-03T15:17:25;7.20;99.90
52943;DHT22;38809;53.300;6.614;2023-03-03T15:22:54;7.30;99.90
52943;DHT22;38809;53.300;6.614;2023-03-03T15:25:25;7.50;99.90
52943;DHT22;38809;53.300;6.614;2023-03-03T15:28:21;7.20;99.90
52943;DHT22;38809;53.300;6.614;2023-03-03T15:33:44;7.20;99.90
52943;DHT22;38809;53.300;6.614;2023-03-03T15:36:30;7.10;99.90
52943;DHT22;38809;53.300;6.614;2023-03-03T15:47:59;7.10;99.90
52943;DHT22;38809;53.300;6.614;2023-03-03T15:50:50;7.10;99.90
52943;DHT22;38809;53.300;6.614;2023-03-03T16:04:14;7.00;99.90
52943;DHT22;38809;53.300;6.614;2023-03-03T16:09:40;7.10;99.90
52943;DHT22;38809;53.300;6.614;2023-03-03T16:15:18;6.90;99.90
52943;DHT22;38809;53.300;6.614;2023-03-03T16:18:02;6.80;99.90
52943;DHT22;38809;53.300;6.614;2023-03-03T16:20:48;6.80;99.90
52943;DHT22;38809;53.300;6.614;2023-03-03T16:31:40;6.90;99.90
52943;DHT22;38809;53.300;6.614;2023-03-03T16:36:53;6.70;99.90
52943;DHT22;38809;53.300;6.614;2023-03-03T16:42:30;6.60;99.90
52943;DHT22;38809;53.300;6.614;2023-03-03T16:45:24;6.70;99.90
52943;DHT22;38809;53.300;6.614;2023-03-03T17:02:02;7.00;99.90
52943;DHT22;38809;53.300;6.614;2023-03-03T17:04:53;6.50;99.90
52943;DHT22;38809;53.300;6.614;2023-03-03T17:07:43;6.40;99.90
52943;DHT22;38809;53.300;6.614;2023-03-03T17:10:32;6.40;99.90
52943;DHT22;38809;53.300;6.614;2023-03-03T17:16:04;6.40;99.90
52943;DHT22;38809;53.300;6.614;2023-03-03T17:21:02;6.40;99.90
52943;DHT22;38809;53.300;6.614;2023-03-03T17:23:48;6.50;99.90
52943;DHT22;38809;53.300;6.614;2023-03-03T17:31:57;6.50;99.90
52943;DHT22;38809;53.300;6.614;2023-03-03T17:40:12;6.40;99.90
52943;DHT22;38809;53.300;6.614;2023-03-03T17:45:12;6.40;99.90
52943;DHT22;38809;53.300;6.614;2023-03-03T17:47:45;6.40;99.90
52943;DHT22;38809;53.300;6.614;2023-03-03T17:53:19;6.40;99.90
52943;DHT22;38809;53.300;6.614;2023-03-03T18:01:55;6.30;99.90
52943;DHT22;38809;53.300;6.614;2023-03-03T18:17:48;6.30;99.90
52943;DHT22;38809;53.300;6.614;2023-03-03T18:22:54;6.30;99.90
52943;DHT22;38809;53.300;6.614;2023-03-03T18:25:24;6.30;99.90
52943;DHT22;38809;53.300;6.614;2023-03-03T18:30:26;6.30;99.90
52943;DHT22;38809;53.300;6.614;2023-03-03T18:37:56;6.30;99.90
52943;DHT22;38809;53.300;6.614;2023-03-03T18:42:53;6.30;99.90
52943;DHT22;38809;53.300;6.614;2023-03-03T18:48:10;6.30;99.90
52943;DHT22;38809;53.300;6.614;2023-03-03T18:50:38;6.20;99.90
52943;DHT22;38809;53.300;6.614;2023-03-03T18:55:48;6.20;99.90
52943;DHT22;38809;53.300;6.614;2023-03-03T19:00:54;6.20;99.90
52943;DHT22;38809;53.300;6.614;2023-03-03T19:05:56;6.30;99.90
52943;DHT22;38809;53.300;6.614;2023-03-03T19:17:43;6.30;99.90
52943;DHT22;38809;53.300;6.614;2023-03-03T19:20:12;6.20;99.90
52943;DHT22;38809;53.300;6.614;2023-03-03T19:23:05;6.20;99.90
52943;DHT22;38809;53.300;6.614;2023-03-03T19:25:33;6.10;99.90
52943;DHT22;38809;53.300;6.614;2023-03-03T19:31:08;6.20;99.90
52943;DHT22;38809;53.300;6.614;2023-03-03T19:34:04;6.20;99.90
52943;DHT22;38809;53.300;6.614;2023-03-03T19:42:37;6.20;99.90
52943;DHT22;38809;53.300;6.614;2023-03-03T19:56:46;6.20;99.90
52943;DHT22;38809;53.300;6.614;2023-03-03T20:16:20;6.20;99.90
52943;DHT22;38809;53.300;6.614;2023-03-03T20:21:34;6.20;99.90
52943;DHT22;38809;53.300;6.614;2023-03-03T20:24:28;6.50;99.90
52943;DHT22;38809;53.300;6.614;2023-03-03T20:51:43;6.30;99.90
52943;DHT22;38809;53.300;6.614;2023-03-03T20:59:54;6.20;99.90
52943;DHT22;38809;53.300;6.614;2023-03-03T21:02:47;6.90;99.90
52943;DHT22;38809;53.300;6.614;2023-03-03T21:05:20;6.20;99.90
52943;DHT22;38809;53.300;6.614;2023-03-03T21:07:58;6.10;99.90
52943;DHT22;38809;53.300;6.614;2023-03-03T21:10:35;6.20;99.90
52943;DHT22;38809;53.300;6.614;2023-03-03T21:15:58;6.20;99.90
52943;DHT22;38809;53.300;6.614;2023-03-03T21:18:26;6.20;99.90
52943;DHT22;38809;53.300;6.614;2023-03-03T21:20:52;6.10;99.90
52943;DHT22;38809;53.300;6.614;2023-03-03T21:23:18;6.20;99.90
52943;DHT22;38809;53.300;6.614;2023-03-03T21:25:46;6.20;99.90
52943;DHT22;38809;53.300;6.614;2023-03-03T21:28:32;6.20;99.90
52943;DHT22;38809;53.300;6.614;2023-03-03T21:31:13;6.20;99.90
52943;DHT22;38809;53.300;6.614;2023-03-03T21:33:47;6.20;99.90
52943;DHT22;38809;53.300;6.614;2023-03-03T21:36:15;6.20;99.90
52943;DHT22;38809;53.300;6.614;2023-03-03T21:38:42;6.20;99.90
52943;DHT22;38809;53.300;6.614;2023-03-03T21:41:08;6.20;99.90
52943;DHT22;38809;53.300;6.614;2023-03-03T21:45:59;6.10;99.90
52943;DHT22;38809;53.300;6.614;2023-03-03T21:48:25;6.10;99.90
52943;DHT22;38809;53.300;6.614;2023-03-03T21:50:51;6.20;99.90
52943;DHT22;38809;53.300;6.614;2023-03-03T21:53:16;6.20;99.90
52943;DHT22;38809;53.300;6.614;2023-03-03T21:55:44;6.20;99.90
52943;DHT22;38809;53.300;6.614;2023-03-03T21:58:14;6.50;99.90
52943;DHT22;38809;53.300;6.614;2023-03-03T22:00:39;6.20;99.90
52943;DHT22;38809;53.300;6.614;2023-03-03T22:03:05;6.20;99.90
52943;DHT22;38809;53.300;6.614;2023-03-03T22:05:31;6.10;99.90
52943;DHT22;38809;53.300;6.614;2023-03-03T22:07:56;6.20;99.90
52943;DHT22;38809;53.300;6.614;2023-03-03T22:10:22;6.10;99.90
52943;DHT22;38809;53.300;6.614;2023-03-03T22:12:48;6.10;99.90
52943;DHT22;38809;53.300;6.614;2023-03-03T22:15:13;6.30;99.90
52943;DHT22;38809;53.300;6.614;2023-03-03T22:17:39;6.10;99.90
52943;DHT22;38809;53.300;6.614;2023-03-03T22:20:05;6.10;99.90
52943;DHT22;38809;53.300;6.614;2023-03-03T22:22:31;6.10;99.90
52943;DHT22;38809;53.300;6.614;2023-03-03T22:24:57;6.30;99.90
52943;DHT22;38809;53.300;6.614;2023-03-03T22:27:23;6.10;99.90
52943;DHT22;38809;53.300;6.614;2023-03-03T22:29:49;6.10;99.90
52943;DHT22;38809;53.300;6.614;2023-03-03T22:32:14;6.10;99.90
52943;DHT22;38809;53.300;6.614;2023-03-03T22:34:40;6.20;99.90
52943;DHT22;38809;53.300;6.614;2023-03-03T22:37:06;6.10;99.90
52943;DHT22;38809;53.300;6.614;2023-03-03T22:39:31;6.10;99.90
52943;DHT22;38809;53.300;6.614;2023-03-03T22:41:57;6.10;99.90
52943;DHT22;38809;53.300;6.614;2023-03-03T22:44:23;6.10;99.90
52943;DHT22;38809;53.300;6.614;2023-03-03T22:46:48;6.10;99.90
52943;DHT22;38809;53.300;6.614;2023-03-03T22:49:14;6.10;99.90